Time;durP1;ratioP1;P1;durP2;ratioP2;P2;SDS_P1;SDS_P2;PMS_P1;PMS_P2;Temp;Humidity;BMP_temperature;BMP_pressure;BME280_temperature;BME280_humidity;BME280_pressure;Samples;Min_cycle;Max_cycle;Signal;HPM_P1;HPM_P2
2023/08/02 00:02:19;;;;;;;2.13;1.20;;;;;;;-144.48;100.00;62369.91;5032973;28;20033;-66
2023/08/02 00:04:44;;;;;;;3.85;1.10;;;;;;;-144.48;100.00;62369.91;5031877;28;20372;-64
2023/08/02 00:07:09;;;;;;;3.47;1.13;;;;;;;-144.48;100.00;62369.91;5032153;28;20040;-66
2023/08/02 00:09:35;;;;;;;2.95;1.20;;;;;;;-144.48;100.00;62369.91;5032137;28;20376;-66
2023/08/02 00:12:00;;;;;;;4.85;1.42;;;;;;;-144.48;100.00;62369.91;5031505;28;20163;-66
2023/08/02 00:14:26;;;;;;;5.07;1.33;;;;;;;-144.48;100.00;62369.91;5032200;28;20025;-66
2023/08/02 00:16:51;;;;;;;2.35;1.17;;;;;;;-144.48;100.00;62369.91;5031575;28;20028;-66
2023/08/02 00:19:17;;;;;;;2.90;1.40;;;;;;;-144.48;100.00;62369.91;5031291;28;20486;-66
2023/08/02 00:21:43;;;;;;;2.30;1.05;;;;;;;-144.48;100.00;62369.91;5032870;28;20036;-65
2023/08/02 00:24:09;;;;;;;4.22;1.30;;;;;;;-144.48;100.00;62369.91;5030486;28;20087;-66
2023/08/02 00:26:34;;;;;;;2.75;1.08;;;;;;;-144.48;100.00;62369.91;5030057;28;20017;-67
2023/08/02 00:29:00;;;;;;;3.13;1.20;;;;;;;-144.48;100.00;62369.91;5030962;28;20021;-65
2023/08/02 00:31:25;;;;;;;5.95;1.40;;;;;;;-144.48;100.00;62369.91;5025589;28;20097;-67
2023/08/02 00:33:50;;;;;;;2.13;1.15;;;;;;;-144.48;100.00;62369.91;5030334;28;20438;-66
2023/08/02 00:36:16;;;;;;;3.30;1.40;;;;;;;-144.48;100.00;62369.91;5044171;28;20033;-67
2023/08/02 00:38:41;;;;;;;3.75;1.10;;;;;;;-144.48;100.00;62369.91;5030902;28;20052;-65
2023/08/02 00:41:07;;;;;;;14.65;1.90;;;;;;;-144.48;100.00;62369.91;5042779;28;20056;-65
2023/08/02 00:43:46;;;;;;;3.53;1.40;;;;;;;-144.48;100.00;62369.91;5041716;28;20485;-66
2023/08/02 00:46:17;;;;;;;7.70;1.35;;;;;;;-144.48;100.00;62369.91;4999560;28;20029;-67
2023/08/02 00:48:45;;;;;;;2.53;1.15;;;;;;;-144.48;100.00;62369.91;5044016;28;20028;-66
2023/08/02 00:51:13;;;;;;;11.65;2.20;;;;;;;-144.48;100.00;62369.91;5030422;28;20213;-65
2023/08/02 00:53:38;;;;;;;2.60;1.20;;;;;;;-144.48;100.00;62369.91;5028946;28;20462;-66
2023/08/02 00:56:05;;;;;;;8.10;1.35;;;;;;;-144.48;100.00;62369.91;5030175;28;20029;-66
2023/08/02 00:58:32;;;;;;;6.45;1.30;;;;;;;-144.48;100.00;62369.91;5030231;28;20318;-64
2023/08/02 01:01:07;;;;;;;6.35;1.70;;;;;;;-144.48;100.00;62369.91;5029682;28;20072;-66
2023/08/02 01:03:44;;;;;;;8.05;1.42;;;;;;;-144.48;100.00;62369.91;5029350;28;20056;-66
2023/08/02 01:06:30;;;;;;;4.43;1.30;;;;;;;-144.48;100.00;62369.91;5029833;28;20454;-66
2023/08/02 01:09:03;;;;;;;4.38;1.25;;;;;;;-144.48;100.00;62369.91;5012412;28;20288;-67
2023/08/02 01:11:39;;;;;;;3.78;1.15;;;;;;;-144.48;100.00;62369.91;5029623;28;20502;-65
2023/08/02 01:14:06;;;;;;;2.25;1.20;;;;;;;-144.48;100.00;62369.91;5029732;28;20471;-67
2023/08/02 01:16:33;;;;;;;4.75;1.15;;;;;;;-144.48;100.00;62369.91;5029690;28;20120;-65
2023/08/02 01:19:07;;;;;;;2.35;0.93;;;;;;;-144.48;100.00;62369.91;5029995;28;20032;-67
2023/08/02 01:21:32;;;;;;;5.55;1.20;;;;;;;-144.48;100.00;62369.91;5029665;28;20017;-66
2023/08/02 01:23:58;;;;;;;4.97;1.10;;;;;;;-144.48;100.00;62369.91;5029686;28;20036;-66
2023/08/02 01:26:26;;;;;;;2.05;1.17;;;;;;;-144.48;100.00;62369.91;5029500;28;20041;-66
2023/08/02 01:28:55;;;;;;;4.35;1.48;;;;;;;-144.48;100.00;62369.91;5020770;28;20091;-66
2023/08/02 01:31:22;;;;;;;3.97;1.20;;;;;;;-144.48;100.00;62369.91;5029814;28;20022;-66
2023/08/02 01:33:53;;;;;;;1.90;0.85;;;;;;;-144.48;100.00;62369.91;5043466;22;20095;-66
2023/08/02 01:36:19;;;;;;;2.97;1.30;;;;;;;-144.48;100.00;62369.91;5015633;28;20038;-67
2023/08/02 01:38:45;;;;;;;2.00;1.08;;;;;;;-144.48;100.00;62369.91;5028745;28;20344;-67
2023/08/02 01:41:10;;;;;;;3.17;1.20;;;;;;;-144.48;100.00;62369.91;5028116;28;20033;-66
2023/08/02 01:43:35;;;;;;;3.70;1.50;;;;;;;-144.48;100.00;62369.91;5028750;28;20048;-66
2023/08/02 01:46:01;;;;;;;2.33;0.93;;;;;;;-144.48;100.00;62369.91;5029508;28;20036;-68
2023/08/02 01:48:26;;;;;;;5.55;1.58;;;;;;;-144.48;100.00;62369.91;5030037;28;20052;-65
2023/08/02 01:50:52;;;;;;;8.20;1.30;;;;;;;-144.48;100.00;62369.91;5029293;28;20025;-66
2023/08/02 01:53:18;;;;;;;7.22;1.67;;;;;;;-144.48;100.00;62369.91;5029963;28;20056;-67
2023/08/02 01:55:44;;;;;;;6.43;1.48;;;;;;;-144.48;100.00;62369.91;5029258;28;20052;-67
2023/08/02 01:58:09;;;;;;;4.90;1.40;;;;;;;-144.48;100.00;62369.91;5028829;28;20095;-66
2023/08/02 02:00:35;;;;;;;2.60;1.05;;;;;;;-144.48;100.00;62369.91;5028147;28;20025;-67
2023/08/02 02:03:00;;;;;;;3.25;1.23;;;;;;;-144.48;100.00;62369.91;5027952;28;20027;-67
2023/08/02 02:05:26;;;;;;;2.70;1.17;;;;;;;-144.48;100.00;62369.91;5027445;28;20483;-64
2023/08/02 02:07:51;;;;;;;7.75;1.30;;;;;;;-144.48;100.00;62369.91;5028667;28;20443;-66
2023/08/02 02:10:16;;;;;;;3.03;1.35;;;;;;;-144.48;100.00;62369.91;5028420;28;20021;-67
2023/08/02 02:12:42;;;;;;;6.65;1.35;;;;;;;-144.48;100.00;62369.91;5028303;28;20439;-67
2023/08/02 02:15:07;;;;;;;5.40;1.30;;;;;;;-144.48;100.00;62369.91;5027813;28;20105;-68
2023/08/02 02:17:33;;;;;;;2.10;1.13;;;;;;;-144.48;100.00;62369.91;5028486;28;20150;-67
2023/08/02 02:19:58;;;;;;;2.55;1.17;;;;;;;-144.48;100.00;62369.91;5028324;28;20530;-66
2023/08/02 02:22:24;;;;;;;5.18;1.50;;;;;;;-144.48;100.00;62369.91;5028068;28;20057;-67
2023/08/02 02:24:49;;;;;;;4.38;1.27;;;;;;;-144.48;100.00;62369.91;5027423;28;20026;-66
2023/08/02 02:27:18;;;;;;;5.40;1.23;;;;;;;-144.48;100.00;62369.91;5028015;28;20059;-67
2023/08/02 02:29:43;;;;;;;3.80;1.25;;;;;;;-144.48;100.00;62369.91;5028408;28;20025;-67
2023/08/02 02:32:08;;;;;;;4.10;1.23;;;;;;;-144.48;100.00;62369.91;5028853;28;20030;-66
2023/08/02 02:34:34;;;;;;;3.38;1.20;;;;;;;-144.48;100.00;62369.91;5027971;28;20036;-65
2023/08/02 02:37:00;;;;;;;3.38;1.33;;;;;;;-144.48;100.00;62369.91;5028880;28;20095;-66
2023/08/02 02:39:26;;;;;;;3.47;1.10;;;;;;;-144.48;100.00;62369.91;5028607;28;20026;-67
2023/08/02 02:41:51;;;;;;;5.15;1.13;;;;;;;-144.48;100.00;62369.91;5027776;28;20030;-66
2023/08/02 02:44:17;;;;;;;4.68;1.55;;;;;;;-144.48;100.00;62369.91;5010485;28;20045;-66
2023/08/02 02:46:42;;;;;;;3.50;1.08;;;;;;;-144.48;100.00;62369.91;5028148;28;20471;-66
2023/08/02 02:49:07;;;;;;;4.10;1.00;;;;;;;-144.48;100.00;62369.91;5027948;28;20033;-63
2023/08/02 02:51:33;;;;;;;4.22;1.17;;;;;;;-144.48;100.00;62369.91;5028311;28;20057;-66
2023/08/02 02:53:58;;;;;;;6.40;1.30;;;;;;;-144.48;100.00;62369.91;5027637;28;20463;-66
2023/08/02 02:56:24;;;;;;;3.50;1.10;;;;;;;-144.48;100.00;62369.91;5028304;28;20348;-60
2023/08/02 02:58:49;;;;;;;2.90;1.02;;;;;;;-144.48;100.00;62369.91;5028514;28;20449;-66
2023/08/02 03:01:15;;;;;;;5.88;1.15;;;;;;;-144.48;100.00;62369.91;5029604;28;20451;-63
2023/08/02 03:03:40;;;;;;;5.13;1.17;;;;;;;-144.48;100.00;62369.91;5027838;28;20064;-67
2023/08/02 03:06:06;;;;;;;4.88;1.38;;;;;;;-144.48;100.00;62369.91;5027925;28;20370;-67
2023/08/02 03:08:31;;;;;;;5.43;1.13;;;;;;;-144.48;100.00;62369.91;5027882;28;20025;-66
2023/08/02 03:10:57;;;;;;;2.47;1.08;;;;;;;-144.48;100.00;62369.91;5027511;28;20029;-64
2023/08/02 03:13:22;;;;;;;5.05;1.30;;;;;;;-144.48;100.00;62369.91;5009572;28;20024;-67
2023/08/02 03:15:48;;;;;;;5.00;1.42;;;;;;;-144.48;100.00;62369.91;5019177;28;20419;-67
2023/08/02 03:18:13;;;;;;;4.63;1.40;;;;;;;-144.48;100.00;62369.91;5026709;28;20029;-63
2023/08/02 03:20:39;;;;;;;2.33;0.90;;;;;;;-144.48;100.00;62369.91;5031477;28;20179;-66
2023/08/02 03:23:05;;;;;;;5.45;1.23;;;;;;;-144.48;100.00;62369.91;5031391;28;20341;-66
2023/08/02 03:25:30;;;;;;;4.57;1.52;;;;;;;-144.48;100.00;62369.91;5030919;28;20107;-66
2023/08/02 03:27:56;;;;;;;4.85;1.33;;;;;;;-144.48;100.00;62369.91;5030754;28;20443;-65
2023/08/02 03:30:22;;;;;;;4.57;1.40;;;;;;;-144.48;100.00;62369.91;5032031;28;20600;-65
2023/08/02 03:32:47;;;;;;;5.55;1.30;;;;;;;-144.48;100.00;62369.91;5030973;28;20133;-66
2023/08/02 03:35:14;;;;;;;5.47;1.25;;;;;;;-144.48;100.00;62369.91;5031347;28;20029;-63
2023/08/02 03:37:40;;;;;;;5.00;1.20;;;;;;;-144.48;100.00;62369.91;5031695;28;20033;-66
2023/08/02 03:40:06;;;;;;;3.45;1.23;;;;;;;-144.48;100.00;62369.91;5031990;28;20095;-67
2023/08/02 03:42:31;;;;;;;4.78;1.27;;;;;;;-144.48;100.00;62369.91;5031089;28;20021;-69
2023/08/02 03:44:56;;;;;;;2.78;1.13;;;;;;;-144.48;100.00;62369.91;5031180;28;20028;-67
2023/08/02 03:47:22;;;;;;;2.22;0.88;;;;;;;-144.48;100.00;62369.91;5031816;28;20313;-65
2023/08/02 03:49:47;;;;;;;7.43;1.33;;;;;;;-144.48;100.00;62369.91;5031743;28;20026;-68
2023/08/02 03:52:13;;;;;;;4.13;1.10;;;;;;;-144.48;100.00;62369.91;4997994;28;20030;-63
2023/08/02 03:54:38;;;;;;;5.28;1.50;;;;;;;-144.48;100.00;62369.91;5020510;28;20025;-67
2023/08/02 03:57:04;;;;;;;6.07;1.33;;;;;;;-144.48;100.00;62369.91;5032034;28;20029;-66
2023/08/02 03:59:29;;;;;;;5.13;1.40;;;;;;;-144.48;100.00;62369.91;5013235;28;20044;-67
2023/08/02 04:01:55;;;;;;;3.63;1.30;;;;;;;-144.48;100.00;62369.91;5010871;28;20065;-66
2023/08/02 04:04:21;;;;;;;5.50;1.58;;;;;;;-144.48;100.00;62369.91;5031318;28;20244;-67
2023/08/02 04:06:46;;;;;;;4.82;1.10;;;;;;;-144.48;100.00;62369.91;5029652;28;20029;-66
2023/08/02 04:09:12;;;;;;;7.95;1.20;;;;;;;-144.48;100.00;62369.91;5031755;28;20387;-64
2023/08/02 04:11:37;;;;;;;6.10;1.20;;;;;;;-144.48;100.00;62369.91;5031136;28;20116;-66
2023/08/02 04:14:04;;;;;;;5.65;1.20;;;;;;;-144.48;100.00;62369.91;5031081;28;20052;-66
2023/08/02 04:16:29;;;;;;;6.55;1.60;;;;;;;-144.48;100.00;62369.91;5001545;28;20022;-67
2023/08/02 04:18:54;;;;;;;5.57;1.10;;;;;;;-144.48;100.00;62369.91;5031341;28;20028;-64
2023/08/02 04:21:20;;;;;;;3.33;1.33;;;;;;;-144.48;100.00;62369.91;5012260;28;20036;-66
2023/08/02 04:23:48;;;;;;;4.25;1.33;;;;;;;-144.48;100.00;62369.91;5029965;28;20518;-67
2023/08/02 04:26:13;;;;;;;7.07;1.50;;;;;;;-144.48;100.00;62369.91;5029706;28;20048;-68
2023/08/02 04:28:39;;;;;;;4.05;1.27;;;;;;;-144.48;100.00;62369.91;5029371;28;20379;-66
2023/08/02 04:31:04;;;;;;;8.15;1.75;;;;;;;-144.48;100.00;62369.91;5029615;28;20029;-67
2023/08/02 04:33:30;;;;;;;4.95;1.63;;;;;;;-144.48;100.00;62369.91;5029463;28;20025;-67
2023/08/02 04:36:01;;;;;;;4.80;1.30;;;;;;;-144.48;100.00;62369.91;5029598;28;20061;-66
2023/08/02 04:38:27;;;;;;;5.57;1.38;;;;;;;-144.48;100.00;62369.91;5030111;28;20494;-66
2023/08/02 04:40:52;;;;;;;5.25;1.58;;;;;;;-144.48;100.00;62369.91;5028794;28;20037;-66
2023/08/02 04:43:18;;;;;;;8.68;1.60;;;;;;;-144.48;100.00;62369.91;5029345;28;20028;-67
2023/08/02 04:45:43;;;;;;;5.32;1.58;;;;;;;-144.48;100.00;62369.91;5029731;28;20017;-66
2023/08/02 04:48:08;;;;;;;3.42;1.20;;;;;;;-144.48;100.00;62369.91;5029673;28;20026;-66
2023/08/02 04:50:34;;;;;;;3.35;1.23;;;;;;;-144.48;100.00;62369.91;5029721;28;20040;-64
2023/08/02 04:53:00;;;;;;;4.65;1.48;;;;;;;-144.48;100.00;62369.91;5029971;28;20112;-65
2023/08/02 04:55:25;;;;;;;5.80;1.40;;;;;;;-144.48;100.00;62369.91;5029417;28;20025;-67
2023/08/02 04:57:51;;;;;;;3.95;1.27;;;;;;;-144.48;100.00;62369.91;5029473;28;20021;-66
2023/08/02 05:00:16;;;;;;;5.43;1.30;;;;;;;-144.48;100.00;62369.91;5029160;28;20033;-67
2023/08/02 05:02:42;;;;;;;1.95;1.10;;;;;;;-144.48;100.00;62369.91;5028988;28;20048;-62
2023/08/02 05:05:07;;;;;;;3.28;1.23;;;;;;;-144.48;100.00;62369.91;5028630;28;20022;-66
2023/08/02 05:07:34;;;;;;;10.60;1.27;;;;;;;-144.48;100.00;62369.91;5011481;28;20108;-68
2023/08/02 05:10:03;;;;;;;11.48;2.10;;;;;;;-144.48;100.00;62369.91;5015789;28;20078;-67
2023/08/02 05:12:30;;;;;;;8.65;1.50;;;;;;;-144.48;100.00;62369.91;5032699;28;20070;-65
2023/08/02 05:14:57;;;;;;;3.50;1.67;;;;;;;-144.48;100.00;62369.91;5029006;28;20025;-66
2023/08/02 05:17:22;;;;;;;10.40;1.83;;;;;;;-144.48;100.00;62369.91;5028903;28;20049;-64
2023/08/02 05:19:48;;;;;;;6.95;1.50;;;;;;;-144.48;100.00;62369.91;5028927;28;20130;-66
2023/08/02 05:22:13;;;;;;;2.63;1.17;;;;;;;-144.48;100.00;62369.91;5029117;28;20025;-67
2023/08/02 05:24:39;;;;;;;7.22;1.67;;;;;;;-144.48;100.00;62369.91;5027748;28;20513;-67
2023/08/02 05:27:04;;;;;;;5.90;1.27;;;;;;;-144.48;100.00;62369.91;5028149;28;20056;-65
2023/08/02 05:29:30;;;;;;;5.55;1.52;;;;;;;-144.48;100.00;62369.91;5028217;28;20044;-63
2023/08/02 05:31:55;;;;;;;9.85;1.52;;;;;;;-144.48;100.00;62369.91;5028060;28;20025;-66
2023/08/02 05:34:21;;;;;;;6.40;1.27;;;;;;;-144.48;100.00;62369.91;5027791;28;20026;-64
2023/08/02 05:36:47;;;;;;;3.10;1.17;;;;;;;-144.48;100.00;62369.91;5029244;28;20025;-67
2023/08/02 05:39:12;;;;;;;7.82;1.40;;;;;;;-144.48;100.00;62369.91;5028087;28;20024;-65
2023/08/02 05:41:37;;;;;;;8.88;1.58;;;;;;;-144.48;100.00;62369.91;5028152;28;20061;-67
2023/08/02 05:44:03;;;;;;;3.88;1.80;;;;;;;-144.48;100.00;62369.91;5028204;28;20096;-67
2023/08/02 05:46:29;;;;;;;3.67;1.30;;;;;;;-144.48;100.00;62369.91;5028288;28;20049;-66
2023/08/02 05:48:55;;;;;;;3.53;1.38;;;;;;;-144.48;100.00;62369.91;5028555;28;20093;-66
2023/08/02 05:51:21;;;;;;;4.35;1.63;;;;;;;-144.48;100.00;62369.91;5028788;28;20578;-62
2023/08/02 05:53:46;;;;;;;3.42;1.60;;;;;;;-144.48;100.00;62369.91;5028515;28;20037;-66
2023/08/02 05:56:12;;;;;;;3.88;1.80;;;;;;;-144.48;100.00;62369.91;5028524;28;20075;-65
2023/08/02 05:58:37;;;;;;;9.95;1.83;;;;;;;-144.48;100.00;62369.91;5028331;28;20028;-64
2023/08/02 06:01:02;;;;;;;3.22;1.35;;;;;;;-144.48;100.00;62369.91;5019132;28;20022;-66
2023/08/02 06:03:28;;;;;;;5.95;1.42;;;;;;;-144.48;100.00;62369.91;5023219;28;20033;-66
2023/08/02 06:05:53;;;;;;;5.72;1.80;;;;;;;-144.48;100.00;62369.91;5028162;28;20053;-65
2023/08/02 06:08:18;;;;;;;4.78;1.45;;;;;;;-144.48;100.00;62369.91;5009017;28;20022;-67
2023/08/02 06:10:44;;;;;;;4.95;1.80;;;;;;;-144.48;100.00;62369.91;5017200;28;20025;-67
2023/08/02 06:13:09;;;;;;;6.28;1.90;;;;;;;-144.48;100.00;62369.91;5027981;28;20017;-63
2023/08/02 06:15:34;;;;;;;7.68;1.98;;;;;;;-144.48;100.00;62369.91;5010195;28;20022;-67
2023/08/02 06:18:00;;;;;;;4.47;1.50;;;;;;;-144.48;100.00;62369.91;5014724;28;20137;-65
2023/08/02 06:20:25;;;;;;;6.68;1.67;;;;;;;-144.48;100.00;62369.91;5027739;28;20654;-65
2023/08/02 06:22:50;;;;;;;5.75;1.98;;;;;;;-144.48;100.00;62369.91;5027451;28;20044;-66
2023/08/02 06:25:16;;;;;;;7.80;1.83;;;;;;;-144.48;100.00;62369.91;5014358;28;20021;-66
2023/08/02 06:27:41;;;;;;;3.58;1.58;;;;;;;-144.48;100.00;62369.91;5027333;28;20086;-67
2023/08/02 06:30:08;;;;;;;7.80;1.63;;;;;;;-144.48;100.00;62369.91;5028329;28;20029;-66
2023/08/02 06:32:33;;;;;;;3.78;1.48;;;;;;;-144.48;100.00;62369.91;5028240;28;20055;-67
2023/08/02 06:34:58;;;;;;;3.75;1.70;;;;;;;-144.48;100.00;62369.91;5027727;28;20430;-63
2023/08/02 06:37:24;;;;;;;5.03;1.58;;;;;;;-144.48;100.00;62369.91;5028781;28;20515;-66
2023/08/02 06:39:49;;;;;;;6.78;1.60;;;;;;;-144.48;100.00;62369.91;5011452;28;20530;-64
2023/08/02 06:42:14;;;;;;;5.22;1.88;;;;;;;-144.48;100.00;62369.91;5016161;28;20025;-66
2023/08/02 06:44:40;;;;;;;11.68;2.10;;;;;;;-144.48;100.00;62369.91;5028637;28;20037;-68
2023/08/02 06:47:05;;;;;;;5.60;1.65;;;;;;;-144.48;100.00;62369.91;5028568;28;20060;-67
2023/08/02 06:49:34;;;;;;;11.63;1.73;;;;;;;-144.48;100.00;62369.91;5029333;28;20032;-64
2023/08/02 06:52:00;;;;;;;5.10;1.83;;;;;;;-144.48;100.00;62369.91;5030969;28;20086;-63
2023/08/02 06:54:25;;;;;;;8.35;1.80;;;;;;;-144.48;100.00;62369.91;5032149;28;20121;-67
2023/08/02 06:56:50;;;;;;;5.18;1.50;;;;;;;-144.48;100.00;62369.91;5032659;28;20029;-66
2023/08/02 06:59:16;;;;;;;4.07;1.52;;;;;;;-144.48;100.00;62369.91;5032140;28;20079;-66
2023/08/02 07:01:41;;;;;;;3.33;1.60;;;;;;;-144.48;100.00;62369.91;5031775;28;20026;-64
2023/08/02 07:04:06;;;;;;;4.07;1.23;;;;;;;-144.48;100.00;62369.91;5031042;28;20112;-66
2023/08/02 07:06:32;;;;;;;4.93;1.55;;;;;;;-144.48;100.00;62369.91;5031498;28;20041;-66
2023/08/02 07:08:57;;;;;;;4.13;1.63;;;;;;;-144.48;100.00;62369.91;5031828;28;20591;-65
2023/08/02 07:11:23;;;;;;;3.08;1.40;;;;;;;-144.48;100.00;62369.91;5030830;28;20022;-66
2023/08/02 07:13:48;;;;;;;5.30;1.60;;;;;;;-144.48;100.00;62369.91;5030623;28;20037;-63
2023/08/02 07:16:14;;;;;;;6.88;1.75;;;;;;;-144.48;100.00;62369.91;5030661;28;20077;-67
2023/08/02 07:18:39;;;;;;;4.80;1.25;;;;;;;-144.48;100.00;62369.91;5025064;28;20399;-66
2023/08/02 07:21:09;;;;;;;8.38;1.52;;;;;;;-144.48;100.00;62369.91;5023932;28;20475;-67
2023/08/02 07:23:35;;;;;;;2.78;1.40;;;;;;;-144.48;100.00;62369.91;5030849;28;20033;-66
2023/08/02 07:26:00;;;;;;;5.90;1.27;;;;;;;-144.48;100.00;62369.91;5030462;28;20033;-65
2023/08/02 07:28:26;;;;;;;3.25;2.13;;;;;;;-144.48;100.00;62369.91;5012077;28;20025;-67
2023/08/02 07:30:51;;;;;;;5.72;2.13;;;;;;;-144.48;100.00;62369.91;5030779;28;20395;-66
2023/08/02 07:33:17;;;;;;;4.90;1.77;;;;;;;-144.48;100.00;62369.91;5030505;28;20021;-64
2023/08/02 07:35:42;;;;;;;7.05;1.77;;;;;;;-144.48;100.00;62369.91;5051348;22;20045;-67
2023/08/02 07:38:08;;;;;;;5.60;1.70;;;;;;;-144.48;100.00;62369.91;5051941;28;20025;-64
2023/08/02 07:40:33;;;;;;;4.55;1.60;;;;;;;-144.48;100.00;62369.91;5052201;28;20482;-66
2023/08/02 07:42:59;;;;;;;5.10;1.48;;;;;;;-144.48;100.00;62369.91;5051423;28;20430;-67
2023/08/02 07:45:24;;;;;;;6.93;1.65;;;;;;;-144.48;100.00;62369.91;5052025;28;20029;-66
2023/08/02 07:47:50;;;;;;;6.80;2.00;;;;;;;-144.48;100.00;62369.91;5034250;28;20540;-64
2023/08/02 07:50:15;;;;;;;4.68;1.65;;;;;;;-144.48;100.00;62369.91;5052213;28;20572;-65
2023/08/02 07:52:40;;;;;;;8.43;1.50;;;;;;;-144.48;100.00;62369.91;5052048;28;20049;-65
2023/08/02 07:55:06;;;;;;;9.05;2.75;;;;;;;-144.48;100.00;62369.91;5051958;28;20032;-67
2023/08/02 07:57:33;;;;;;;8.70;1.88;;;;;;;-144.48;100.00;62369.91;5050868;28;20017;-64
2023/08/02 07:59:59;;;;;;;7.22;1.52;;;;;;;-144.48;100.00;62369.91;5050787;28;20485;-65
2023/08/02 08:02:27;;;;;;;7.15;2.10;;;;;;;-144.48;100.00;62369.91;5050318;28;20032;-67
2023/08/02 08:04:54;;;;;;;3.28;1.70;;;;;;;-144.48;100.00;62369.91;5050676;28;20021;-66
2023/08/02 08:07:20;;;;;;;6.50;2.08;;;;;;;-144.48;100.00;62369.91;5037736;28;20029;-65
2023/08/02 08:09:45;;;;;;;7.35;1.83;;;;;;;-144.48;100.00;62369.91;5051531;28;20032;-66
2023/08/02 08:12:11;;;;;;;6.25;2.90;;;;;;;-144.48;100.00;62369.91;5051260;28;20021;-66
2023/08/02 08:14:36;;;;;;;10.02;1.92;;;;;;;-144.48;100.00;62369.91;5033267;28;20021;-67
2023/08/02 08:17:02;;;;;;;6.15;1.75;;;;;;;-144.48;100.00;62369.91;5050875;28;20025;-65
2023/08/02 08:19:28;;;;;;;7.05;1.95;;;;;;;-144.48;100.00;62369.91;5051322;28;20052;-66
2023/08/02 08:21:54;;;;;;;6.25;2.03;;;;;;;-144.48;100.00;62369.91;5051728;28;20044;-65
2023/08/02 08:24:20;;;;;;;4.50;1.65;;;;;;;-144.48;100.00;62369.91;5051360;28;20029;-65
2023/08/02 08:26:46;;;;;;;4.72;1.98;;;;;;;-144.48;100.00;62369.91;5050286;28;20106;-66
2023/08/02 08:29:11;;;;;;;3.92;1.73;;;;;;;-144.48;100.00;62369.91;5051324;28;20021;-66
2023/08/02 08:31:37;;;;;;;4.20;1.70;;;;;;;-144.48;100.00;62369.91;5032700;28;20027;-67
2023/08/02 08:34:03;;;;;;;8.25;2.00;;;;;;;-144.48;100.00;62369.91;5050298;28;20029;-66
2023/08/02 08:36:29;;;;;;;4.65;1.80;;;;;;;-144.48;100.00;62369.91;5037495;28;20040;-67
2023/08/02 08:38:55;;;;;;;10.88;1.90;;;;;;;-144.48;100.00;62369.91;5050934;28;20021;-67
2023/08/02 08:41:21;;;;;;;8.85;2.00;;;;;;;-144.48;100.00;62369.91;5036546;28;20285;-66
2023/08/02 08:43:46;;;;;;;8.77;2.28;;;;;;;-144.48;100.00;62369.91;5050114;28;20299;-66
2023/08/02 08:46:12;;;;;;;6.13;2.00;;;;;;;-144.48;100.00;62369.91;5050421;28;20033;-63
2023/08/02 08:48:38;;;;;;;7.30;2.03;;;;;;;-144.48;100.00;62369.91;5050835;28;20364;-65
2023/08/02 08:51:05;;;;;;;6.18;1.88;;;;;;;-144.48;100.00;62369.91;5037238;28;20040;-65
2023/08/02 08:53:35;;;;;;;12.90;2.03;;;;;;;-144.48;100.00;62369.91;5050601;28;20021;-64
2023/08/02 08:56:02;;;;;;;5.50;1.90;;;;;;;-144.48;100.00;62369.91;5037622;28;20025;-66
2023/08/02 08:58:29;;;;;;;5.63;2.00;;;;;;;-144.48;100.00;62369.91;5050337;28;20032;-66
2023/08/02 09:00:54;;;;;;;7.00;1.95;;;;;;;-144.48;100.00;62369.91;5050092;28;20515;-65
2023/08/02 09:03:21;;;;;;;4.40;1.65;;;;;;;-144.48;100.00;62369.91;5049318;28;20025;-66
2023/08/02 09:05:46;;;;;;;10.38;2.28;;;;;;;-144.48;100.00;62369.91;5032101;28;20021;-67
2023/08/02 09:08:12;;;;;;;16.20;2.90;;;;;;;-144.48;100.00;62369.91;5049928;28;20029;-65
2023/08/02 09:10:38;;;;;;;7.75;2.90;;;;;;;-144.48;100.00;62369.91;5050428;28;20021;-64
2023/08/02 09:13:04;;;;;;;8.23;2.47;;;;;;;-144.48;100.00;62369.91;5049982;28;20033;-67
2023/08/02 09:15:29;;;;;;;5.13;2.13;;;;;;;-144.48;100.00;62369.91;5049124;28;20021;-65
2023/08/02 09:17:55;;;;;;;8.75;2.38;;;;;;;-144.48;100.00;62369.91;5049806;28;20096;-66
2023/08/02 09:20:23;;;;;;;6.72;2.20;;;;;;;-144.48;100.00;62369.91;5049913;28;20032;-67
2023/08/02 09:22:49;;;;;;;9.93;2.38;;;;;;;-144.48;100.00;62369.91;5050110;28;20060;-66
2023/08/02 09:25:26;;;;;;;4.03;1.73;;;;;;;-144.48;100.00;62369.91;5049626;28;20060;-67
2023/08/02 09:27:53;;;;;;;9.88;2.10;;;;;;;-144.48;100.00;62369.91;5045791;28;20020;-65
2023/08/02 09:30:29;;;;;;;9.02;2.10;;;;;;;-144.48;100.00;62369.91;5049671;28;20098;-67
2023/08/02 09:33:06;;;;;;;8.18;1.80;;;;;;;-144.48;100.00;62369.91;5044235;28;20040;-69
2023/08/02 09:35:51;;;;;;;7.18;1.73;;;;;;;-144.48;100.00;62369.91;5049645;28;20029;-68
2023/08/02 09:38:17;;;;;;;8.23;2.00;;;;;;;-144.48;100.00;62369.91;5038648;28;20052;-68
2023/08/02 09:40:47;;;;;;;7.00;2.13;;;;;;;-144.48;100.00;62369.91;5050124;28;20031;-67
2023/08/02 09:43:14;;;;;;;4.03;1.58;;;;;;;-144.48;100.00;62369.91;5049639;28;20464;-65
2023/08/02 09:45:40;;;;;;;7.00;2.00;;;;;;;-144.48;100.00;62369.91;5049264;28;20090;-66
2023/08/02 09:48:05;;;;;;;4.05;1.80;;;;;;;-144.48;100.00;62369.91;5049204;28;20041;-66
2023/08/02 09:50:31;;;;;;;15.57;1.98;;;;;;;-144.48;100.00;62369.91;5049217;28;20056;-66
2023/08/02 09:52:57;;;;;;;6.53;1.98;;;;;;;-144.48;100.00;62369.91;5049473;28;20091;-65
2023/08/02 09:55:23;;;;;;;4.78;1.83;;;;;;;-144.48;100.00;62369.91;5048963;28;20123;-64
2023/08/02 09:57:49;;;;;;;5.63;1.98;;;;;;;-144.48;100.00;62369.91;5048439;28;20538;-65
2023/08/02 10:00:15;;;;;;;7.25;1.95;;;;;;;-144.48;100.00;62369.91;5049252;28;20621;-67
2023/08/02 10:02:41;;;;;;;5.03;1.90;;;;;;;-144.48;100.00;62369.91;5049063;28;20110;-68
2023/08/02 10:05:12;;;;;;;6.65;1.98;;;;;;;-144.48;100.00;62369.91;5048808;28;20052;-67
2023/08/02 10:07:43;;;;;;;5.10;1.90;;;;;;;-144.48;100.00;62369.91;5049279;28;20100;-67
2023/08/02 10:10:30;;;;;;;7.85;1.90;;;;;;;-144.48;100.00;62369.91;5049346;28;20183;-64
2023/08/02 10:13:01;;;;;;;9.00;1.73;;;;;;;-144.48;100.00;62369.91;5031228;28;20103;-65
2023/08/02 10:15:27;;;;;;;7.05;1.77;;;;;;;-144.48;100.00;62369.91;5031001;28;20025;-66
2023/08/02 10:17:54;;;;;;;5.03;1.70;;;;;;;-144.48;100.00;62369.91;5049141;28;20467;-66
2023/08/02 10:20:20;;;;;;;7.10;1.77;;;;;;;-144.48;100.00;62369.91;5049434;28;20029;-65
2023/08/02 10:22:47;;;;;;;4.75;1.77;;;;;;;-144.48;100.00;62369.91;5049549;28;20368;-67
2023/08/02 10:25:15;;;;;;;5.25;1.75;;;;;;;-144.48;100.00;62369.91;5045479;28;20024;-65
2023/08/02 10:27:41;;;;;;;8.45;1.85;;;;;;;-144.48;100.00;62369.91;5052733;28;20095;-64
2023/08/02 10:30:09;;;;;;;7.15;1.80;;;;;;;-144.48;100.00;62369.91;5050482;28;20036;-68
2023/08/02 10:32:34;;;;;;;6.60;1.70;;;;;;;-144.48;100.00;62369.91;5042330;28;20536;-67
2023/08/02 10:35:00;;;;;;;3.80;1.98;;;;;;;-144.48;100.00;62369.91;5052616;28;20037;-66
2023/08/02 10:37:53;;;;;;;4.10;1.90;;;;;;;-144.48;100.00;62369.91;5053334;28;20417;-63
2023/08/02 10:40:21;;;;;;;5.85;1.77;;;;;;;-144.48;100.00;62369.91;5035459;28;20052;-67
2023/08/02 10:43:06;;;;;;;3.97;1.45;;;;;;;-144.48;100.00;62369.91;5053055;28;20497;-66
2023/08/02 10:45:32;;;;;;;6.15;1.50;;;;;;;-144.48;100.00;62369.91;5053278;28;20033;-64
2023/08/02 10:48:25;;;;;;;9.32;1.67;;;;;;;-144.48;100.00;62369.91;5052813;28;20394;-67
2023/08/02 10:50:51;;;;;;;4.75;1.75;;;;;;;-144.48;100.00;62369.91;5053431;28;20670;-64
2023/08/02 10:53:17;;;;;;;3.08;1.48;;;;;;;-144.48;100.00;62369.91;5052874;28;20331;-66
2023/08/02 10:56:01;;;;;;;5.78;1.55;;;;;;;-144.48;100.00;62369.91;5052280;28;20394;-68
2023/08/02 10:58:27;;;;;;;4.28;1.70;;;;;;;-144.48;100.00;62369.91;5052043;28;20032;-67
2023/08/02 11:01:10;;;;;;;5.88;1.80;;;;;;;-144.48;100.00;62369.91;5051926;28;20016;-66
2023/08/02 11:03:37;;;;;;;4.03;1.65;;;;;;;-144.48;100.00;62369.91;5052280;28;20028;-63
2023/08/02 11:06:03;;;;;;;3.83;1.52;;;;;;;-144.48;100.00;62369.91;5053247;28;20462;-66
2023/08/02 11:08:28;;;;;;;5.80;1.88;;;;;;;-144.48;100.00;62369.91;5052590;28;20029;-67